createdAt,value
2022-12-04T00:01:11.676Z,1.80
2022-12-04T00:03:40.167Z,1.90
2022-12-04T00:06:10.941Z,1.90
2022-12-04T00:08:39.860Z,1.90
2022-12-04T00:11:10.816Z,1.90
2022-12-04T00:13:40.708Z,1.90
2022-12-04T00:16:10.094Z,2.00
2022-12-04T00:18:38.808Z,1.90
2022-12-04T00:21:08.461Z,1.90
2022-12-04T00:23:39.393Z,1.90
2022-12-04T00:26:10.154Z,1.90
2022-12-04T00:28:40.135Z,1.90
2022-12-04T00:31:09.273Z,1.80
2022-12-04T00:33:38.176Z,1.90
2022-12-04T00:36:10.022Z,1.80
2022-12-04T00:38:38.900Z,1.70
2022-12-04T00:41:09.263Z,1.70
2022-12-04T00:43:37.354Z,1.60
2022-12-04T00:46:07.698Z,1.70
2022-12-04T00:48:35.852Z,1.70
2022-12-04T00:51:04.877Z,1.70
2022-12-04T00:53:32.945Z,1.70
2022-12-04T00:56:04.787Z,1.70
2022-12-04T00:58:33.491Z,1.70
2022-12-04T01:01:04.662Z,1.70
2022-12-04T01:03:35.094Z,1.60
2022-12-04T01:06:05.153Z,1.70
2022-12-04T01:08:33.578Z,1.60
2022-12-04T01:11:01.612Z,1.60
2022-12-04T01:13:29.874Z,1.50
2022-12-04T01:15:58.306Z,1.50
2022-12-04T01:18:26.572Z,1.50
2022-12-04T01:20:55.989Z,1.50
2022-12-04T01:23:24.171Z,1.50
2022-12-04T01:25:54.371Z,1.50
2022-12-04T01:28:22.858Z,1.60
2022-12-04T01:31:01.385Z,1.60
2022-12-04T01:33:30.678Z,1.60
2022-12-04T01:36:01.864Z,1.50
2022-12-04T01:38:30.237Z,1.50
2022-12-04T01:40:59.688Z,1.80
2022-12-04T01:43:30.079Z,1.60
2022-12-04T01:45:59.717Z,1.60
2022-12-04T01:48:31.846Z,1.60
2022-12-04T01:51:06.571Z,1.60
2022-12-04T01:53:39.058Z,1.60
2022-12-04T01:56:08.291Z,1.60
2022-12-04T01:58:42.149Z,1.60
2022-12-04T02:01:11.576Z,1.60
2022-12-04T02:03:40.737Z,1.70
2022-12-04T02:06:10.487Z,1.70
2022-12-04T02:08:39.143Z,1.70
2022-12-04T02:11:19.216Z,1.60
2022-12-04T02:13:57.881Z,1.60
2022-12-04T02:16:33.107Z,1.60
2022-12-04T02:19:16.647Z,1.70
2022-12-04T02:21:50.204Z,1.50
2022-12-04T02:24:48.436Z,1.50
2022-12-04T02:27:29.600Z,1.50
2022-12-04T02:30:03.757Z,1.50
2022-12-04T02:32:40.988Z,1.50
2022-12-04T02:35:15.160Z,1.40
2022-12-04T02:37:46.778Z,1.40
2022-12-04T02:40:25.244Z,1.40
2022-12-04T02:42:59.280Z,1.40
2022-12-04T02:45:31.360Z,1.50
2022-12-04T02:48:01.841Z,1.40
2022-12-04T02:50:32.627Z,1.50
2022-12-04T02:53:05.096Z,1.40
2022-12-04T02:55:47.423Z,1.50
2022-12-04T02:58:21.446Z,1.40
2022-12-04T03:00:53.114Z,1.50
2022-12-04T03:03:25.188Z,1.50
2022-12-04T03:05:57.831Z,1.50
2022-12-04T03:08:32.106Z,1.50
2022-12-04T03:11:01.888Z,1.60
2022-12-04T03:13:34.185Z,1.50
2022-12-04T03:16:09.244Z,1.50
2022-12-04T03:18:41.853Z,1.50
2022-12-04T03:21:15.517Z,1.40
2022-12-04T03:23:49.817Z,1.50
2022-12-04T03:26:27.025Z,1.60
2022-12-04T03:29:00.231Z,1.60
2022-12-04T03:31:37.157Z,1.60
2022-12-04T03:34:07.149Z,1.60
2022-12-04T03:36:38.626Z,1.60
2022-12-04T03:39:13.062Z,1.70
2022-12-04T03:41:53.152Z,1.70
2022-12-04T03:44:27.321Z,1.60
2022-12-04T03:47:01.781Z,1.60
2022-12-04T03:49:39.510Z,1.60
2022-12-04T03:52:16.037Z,1.60
2022-12-04T03:54:48.868Z,1.60
2022-12-04T03:57:21.981Z,1.60
2022-12-04T03:59:56.299Z,1.60
2022-12-04T04:02:29.696Z,1.60
2022-12-04T04:05:00.154Z,1.70
2022-12-04T04:07:35.784Z,1.70
2022-12-04T04:10:08.779Z,1.60
2022-12-04T04:12:41.654Z,1.70
2022-12-04T04:15:30.539Z,1.70
2022-12-04T04:18:19.526Z,1.60
2022-12-04T04:21:08.468Z,1.60
2022-12-04T04:23:58.432Z,1.60
2022-12-04T04:26:29.562Z,1.60
2022-12-04T04:28:57.945Z,1.60
2022-12-04T04:31:34.828Z,1.60
2022-12-04T04:34:13.671Z,1.60
2022-12-04T04:36:48.794Z,1.60
2022-12-04T04:39:24.319Z,1.60
2022-12-04T04:41:56.945Z,1.60
2022-12-04T04:44:31.470Z,1.60
2022-12-04T04:47:02.869Z,1.80
2022-12-04T04:49:36.183Z,1.70
2022-12-04T04:52:05.188Z,1.70
2022-12-04T04:54:35.166Z,1.70
2022-12-04T04:57:03.092Z,1.70
2022-12-04T04:59:31.116Z,1.70
2022-12-04T05:01:59.470Z,1.80
2022-12-04T05:04:27.565Z,1.70
2022-12-04T05:06:57.000Z,1.70
2022-12-04T05:09:25.104Z,1.70
2022-12-04T05:11:53.231Z,1.80
2022-12-04T05:14:21.361Z,1.90
2022-12-04T05:16:49.655Z,1.90
2022-12-04T05:19:35.072Z,1.90
2022-12-04T05:22:04.530Z,2.10
2022-12-04T05:24:32.443Z,1.90
2022-12-04T05:27:00.748Z,1.70
2022-12-04T05:29:32.769Z,1.80
2022-12-04T05:32:03.611Z,1.80
2022-12-04T05:34:32.014Z,1.80
2022-12-04T05:37:00.070Z,1.80
2022-12-04T05:39:29.639Z,1.80
2022-12-04T05:41:58.011Z,1.80
2022-12-04T05:44:27.142Z,1.80
2022-12-04T05:46:55.553Z,1.90
2022-12-04T05:49:24.133Z,1.80
2022-12-04T05:51:52.617Z,1.80
2022-12-04T05:54:20.820Z,1.80
2022-12-04T05:56:50.452Z,1.90
2022-12-04T05:59:19.444Z,1.90
2022-12-04T06:01:48.028Z,1.90
2022-12-04T06:04:16.484Z,1.90
2022-12-04T06:06:44.499Z,1.90
2022-12-04T06:09:13.655Z,1.90
2022-12-04T06:11:43.294Z,1.90
2022-12-04T06:14:15.283Z,1.80
2022-12-04T06:16:45.618Z,1.80
2022-12-04T06:19:16.351Z,1.80
2022-12-04T06:21:47.012Z,1.80
2022-12-04T06:24:17.096Z,1.80
2022-12-04T06:27:11.103Z,1.80
2022-12-04T06:29:34.991Z,1.90
2022-12-04T06:32:03.240Z,1.90
2022-12-04T06:34:31.420Z,1.80
2022-12-04T06:36:59.460Z,1.90
2022-12-04T06:39:27.707Z,1.90
2022-12-04T06:41:55.728Z,1.80
2022-12-04T06:44:23.732Z,1.80
2022-12-04T06:46:54.827Z,1.80
2022-12-04T06:49:23.253Z,1.80
2022-12-04T06:51:51.506Z,1.80
2022-12-04T06:54:19.601Z,1.80
2022-12-04T06:56:47.610Z,1.80
2022-12-04T06:59:15.737Z,1.90
2022-12-04T07:01:44.049Z,1.90
2022-12-04T07:04:13.401Z,1.90
2022-12-04T07:06:42.785Z,1.90
2022-12-04T07:09:15.972Z,1.90
2022-12-04T07:11:44.944Z,1.80
2022-12-04T07:14:14.461Z,1.80
2022-12-04T07:16:43.321Z,1.70
2022-12-04T07:19:14.519Z,1.90
2022-12-04T07:21:43.890Z,1.80
2022-12-04T07:24:16.617Z,1.80
2022-12-04T07:26:45.158Z,1.80
2022-12-04T07:29:13.816Z,1.80
2022-12-04T07:31:42.003Z,1.70
2022-12-04T07:34:09.999Z,1.70
2022-12-04T07:36:40.922Z,1.70
2022-12-04T07:39:09.077Z,1.70
2022-12-04T07:41:37.302Z,1.70
2022-12-04T07:44:08.337Z,1.80
2022-12-04T07:46:36.582Z,1.80
2022-12-04T07:49:04.540Z,1.80
2022-12-04T07:51:32.621Z,1.80
2022-12-04T07:54:03.997Z,1.80
2022-12-04T07:56:33.514Z,1.90
2022-12-04T07:59:04.152Z,1.90
2022-12-04T08:01:32.728Z,1.80
2022-12-04T08:04:03.326Z,1.90
2022-12-04T08:06:34.930Z,1.90
2022-12-04T08:09:09.597Z,1.90
2022-12-04T08:11:39.411Z,1.90
2022-12-04T08:14:09.029Z,2.00
2022-12-04T08:16:37.486Z,1.80
2022-12-04T08:19:05.713Z,2.00
2022-12-04T08:21:34.587Z,2.00
2022-12-04T08:24:04.588Z,2.00
2022-12-04T08:26:33.768Z,2.10
2022-12-04T08:29:03.060Z,2.20
2022-12-04T08:31:34.402Z,2.10
2022-12-04T08:34:04.543Z,2.10
2022-12-04T08:36:33.311Z,2.00
2022-12-04T08:39:01.492Z,2.00
2022-12-04T08:41:31.004Z,2.10
2022-12-04T08:43:59.679Z,2.10
2022-12-04T08:46:29.372Z,2.10
2022-12-04T08:48:57.998Z,2.10
2022-12-04T08:51:28.464Z,2.10
2022-12-04T08:53:57.522Z,2.10
2022-12-04T08:56:26.384Z,2.10
2022-12-04T08:59:00.262Z,2.10
2022-12-04T09:01:30.016Z,2.10
2022-12-04T09:03:59.138Z,2.10
2022-12-04T09:06:27.551Z,2.10
2022-12-04T09:08:56.625Z,2.10
2022-12-04T09:11:26.821Z,2.10
2022-12-04T09:14:00.662Z,2.20
2022-12-04T09:16:28.954Z,2.20
2022-12-04T09:18:57.658Z,2.00
2022-12-04T09:21:26.982Z,2.10
2022-12-04T09:23:55.000Z,2.10
2022-12-04T09:26:26.199Z,2.10
2022-12-04T09:28:57.379Z,2.10
2022-12-04T09:31:26.001Z,2.10
2022-12-04T09:33:56.261Z,2.30
2022-12-04T09:36:24.496Z,2.20
2022-12-04T09:38:54.168Z,2.10
2022-12-04T09:41:41.368Z,2.20
2022-12-04T09:44:17.760Z,2.20
2022-12-04T09:46:51.771Z,2.10
2022-12-04T09:49:24.966Z,2.20
2022-12-04T09:51:56.452Z,2.30
2022-12-04T09:54:28.337Z,2.30
2022-12-04T09:57:01.693Z,2.30
2022-12-04T09:59:33.814Z,2.30
2022-12-04T10:02:04.627Z,2.40
2022-12-04T10:04:32.601Z,2.30
2022-12-04T10:07:08.957Z,2.30
2022-12-04T10:09:43.759Z,2.20
2022-12-04T10:12:23.210Z,2.20
2022-12-04T10:15:05.184Z,2.20
2022-12-04T10:17:46.765Z,2.10
2022-12-04T10:20:28.462Z,2.20
2022-12-04T10:23:13.403Z,2.20
2022-12-04T10:25:43.177Z,2.20
2022-12-04T10:28:23.718Z,2.20
2022-12-04T10:30:57.108Z,2.20
2022-12-04T10:33:30.354Z,2.20
2022-12-04T10:35:58.675Z,2.20
2022-12-04T10:38:36.154Z,2.10
2022-12-04T10:41:14.827Z,2.20
2022-12-04T10:43:45.407Z,2.20
2022-12-04T10:46:19.634Z,2.30
2022-12-04T10:48:50.391Z,2.40
2022-12-04T10:51:21.564Z,2.40
2022-12-04T10:53:49.891Z,2.40
2022-12-04T10:56:19.648Z,2.30
2022-12-04T10:58:57.732Z,2.30
2022-12-04T11:01:29.127Z,2.50
2022-12-04T11:04:01.287Z,2.40
2022-12-04T11:06:29.938Z,2.50
2022-12-04T11:09:02.903Z,2.50
2022-12-04T11:11:33.176Z,2.40
2022-12-04T11:14:14.716Z,2.40
2022-12-04T11:16:48.217Z,2.40
2022-12-04T11:19:22.539Z,2.60
2022-12-04T11:21:51.496Z,2.40
2022-12-04T11:24:23.616Z,2.50
2022-12-04T11:26:53.424Z,2.50
2022-12-04T11:29:27.344Z,2.50
2022-12-04T11:32:02.757Z,2.40
2022-12-04T11:34:38.197Z,2.40
2022-12-04T11:37:08.235Z,2.50
2022-12-04T11:39:40.761Z,2.50
2022-12-04T11:42:20.059Z,2.50
2022-12-04T11:44:53.505Z,2.50
2022-12-04T11:47:26.146Z,2.50
2022-12-04T11:50:03.976Z,2.40
2022-12-04T11:52:50.888Z,2.40
2022-12-04T11:55:29.206Z,2.50
2022-12-04T11:58:14.440Z,2.50
2022-12-04T12:00:55.493Z,2.60
2022-12-04T12:03:33.486Z,2.50
2022-12-04T12:06:35.786Z,2.50
2022-12-04T12:09:21.541Z,2.60
2022-12-04T12:11:53.392Z,2.60
2022-12-04T12:14:29.855Z,2.50
2022-12-04T12:17:08.436Z,2.40
2022-12-04T12:20:04.195Z,2.40
2022-12-04T12:23:03.681Z,2.40
2022-12-04T12:25:37.745Z,2.30
2022-12-04T12:28:21.319Z,2.20
2022-12-04T12:31:07.235Z,2.20
2022-12-04T12:33:39.535Z,2.30
2022-12-04T12:36:11.205Z,2.30
2022-12-04T12:38:45.246Z,2.30
2022-12-04T12:41:16.669Z,2.40
2022-12-04T12:43:49.250Z,2.40
2022-12-04T12:46:21.196Z,2.40
2022-12-04T12:48:58.646Z,2.50
2022-12-04T12:51:36.425Z,2.60
2022-12-04T12:54:15.578Z,2.60
2022-12-04T12:56:49.772Z,2.60
2022-12-04T12:59:22.067Z,2.60
2022-12-04T13:02:00.310Z,2.70
2022-12-04T13:04:36.271Z,2.60
2022-12-04T13:07:22.094Z,2.60
2022-12-04T13:09:58.039Z,2.50
2022-12-04T13:12:27.449Z,2.40
2022-12-04T13:14:55.687Z,2.40
2022-12-04T13:17:32.256Z,2.40
2022-12-04T13:20:09.583Z,2.40
2022-12-04T13:22:53.155Z,2.40
2022-12-04T13:25:37.467Z,2.40
2022-12-04T13:28:19.049Z,2.30
2022-12-04T13:30:53.486Z,2.20
2022-12-04T13:33:54.633Z,2.30
2022-12-04T13:36:37.125Z,2.40
2022-12-04T13:39:38.392Z,2.40
2022-12-04T13:42:18.242Z,2.40
2022-12-04T13:44:55.821Z,2.50
2022-12-04T13:47:29.409Z,2.40
2022-12-04T13:50:09.185Z,2.40
2022-12-04T13:52:42.675Z,2.30
2022-12-04T13:55:25.364Z,2.30
2022-12-04T13:58:03.383Z,2.30
2022-12-04T14:00:34.944Z,2.20
2022-12-04T14:03:06.828Z,2.20
2022-12-04T14:05:42.582Z,2.20
2022-12-04T14:08:24.949Z,2.10
2022-12-04T14:11:02.659Z,2.10
2022-12-04T14:13:44.155Z,2.10
2022-12-04T14:16:21.713Z,2.10
2022-12-04T14:18:52.425Z,2.10
2022-12-04T14:21:20.607Z,2.20
2022-12-04T14:23:50.069Z,2.30
2022-12-04T14:26:48.918Z,2.30
2022-12-04T14:29:35.428Z,2.30
2022-12-04T14:32:11.290Z,2.30
2022-12-04T14:34:39.635Z,2.40
2022-12-04T14:37:08.923Z,2.40
2022-12-04T14:39:41.696Z,2.40
2022-12-04T14:42:16.404Z,2.40
2022-12-04T14:44:47.601Z,2.40
2022-12-04T14:47:29.742Z,2.30
2022-12-04T14:50:10.333Z,2.40
2022-12-04T14:52:44.379Z,2.30
2022-12-04T14:55:22.458Z,2.30
2022-12-04T14:57:56.783Z,2.40
2022-12-04T15:00:27.336Z,2.50
2022-12-04T15:02:58.827Z,2.50
2022-12-04T15:05:29.636Z,2.60
2022-12-04T15:08:02.153Z,2.70
2022-12-04T15:10:50.224Z,2.80
2022-12-04T15:13:27.576Z,2.60
2022-12-04T15:15:57.978Z,2.70
2022-12-04T15:18:26.066Z,2.70
2022-12-04T15:20:57.830Z,2.70
2022-12-04T15:23:30.523Z,2.70
2022-12-04T15:26:01.687Z,2.70
2022-12-04T15:28:32.712Z,2.70
2022-12-04T15:31:06.573Z,2.70
2022-12-04T15:33:38.378Z,2.70
2022-12-04T15:36:28.109Z,2.70
2022-12-04T15:38:56.639Z,2.90
2022-12-04T15:41:34.146Z,2.70
2022-12-04T15:44:02.934Z,2.70
2022-12-04T15:46:35.531Z,2.70
2022-12-04T15:49:09.088Z,2.70
2022-12-04T15:51:37.096Z,2.60
2022-12-04T15:54:06.075Z,2.70
2022-12-04T15:56:34.097Z,2.60
2022-12-04T15:59:03.812Z,2.80
2022-12-04T16:01:41.594Z,2.70
2022-12-04T16:04:22.125Z,2.80
2022-12-04T16:06:53.700Z,2.80
2022-12-04T16:09:23.981Z,2.70
2022-12-04T16:12:00.938Z,2.70
2022-12-04T16:14:28.995Z,2.70
2022-12-04T16:17:06.012Z,2.80
2022-12-04T16:19:36.767Z,2.70
2022-12-04T16:22:12.081Z,2.70
2022-12-04T16:24:41.839Z,2.60
2022-12-04T16:27:13.393Z,2.60
2022-12-04T16:29:41.419Z,2.50
2022-12-04T16:32:14.120Z,2.50
2022-12-04T16:34:42.095Z,2.30
2022-12-04T16:37:13.955Z,2.40
2022-12-04T16:39:42.114Z,2.40
2022-12-04T16:42:19.842Z,2.50
2022-12-04T16:44:48.369Z,2.50
2022-12-04T16:47:17.972Z,2.60
2022-12-04T16:49:50.752Z,2.60
2022-12-04T16:52:19.445Z,2.60
2022-12-04T16:54:48.281Z,2.60
2022-12-04T16:57:16.581Z,2.60
2022-12-04T16:59:45.192Z,2.60
2022-12-04T17:02:21.000Z,2.50
2022-12-04T17:04:54.118Z,2.50
2022-12-04T17:07:25.609Z,2.50
2022-12-04T17:09:53.961Z,2.50
2022-12-04T17:12:22.080Z,2.60
2022-12-04T17:14:50.171Z,2.60
2022-12-04T17:17:19.593Z,2.80
2022-12-04T17:19:48.214Z,2.70
2022-12-04T17:22:16.758Z,2.70
2022-12-04T17:24:50.330Z,2.70
2022-12-04T17:27:22.806Z,2.60
2022-12-04T17:29:50.831Z,2.60
2022-12-04T17:32:20.308Z,2.60
2022-12-04T17:34:48.581Z,2.60
2022-12-04T17:37:16.681Z,2.60
2022-12-04T17:39:44.886Z,2.70
2022-12-04T17:42:13.313Z,2.70
2022-12-04T17:44:41.354Z,2.70
2022-12-04T17:47:09.559Z,2.70
2022-12-04T17:49:39.254Z,2.80
2022-12-04T17:52:07.551Z,2.80
2022-12-04T17:54:36.111Z,2.80
2022-12-04T17:57:04.904Z,2.80
2022-12-04T17:59:33.334Z,2.90
2022-12-04T18:02:01.691Z,2.90
2022-12-04T18:04:29.654Z,2.90
2022-12-04T18:06:59.083Z,2.90
2022-12-04T18:09:27.087Z,2.90
2022-12-04T18:11:56.355Z,3.00
2022-12-04T18:14:24.494Z,3.00
2022-12-04T18:16:56.971Z,3.00
2022-12-04T18:19:26.595Z,3.00
2022-12-04T18:21:55.358Z,3.00
2022-12-04T18:24:27.893Z,3.00
2022-12-04T18:26:55.944Z,3.10
2022-12-04T18:29:26.312Z,3.20
2022-12-04T18:31:55.265Z,3.10
2022-12-04T18:34:26.677Z,3.10
2022-12-04T18:36:58.729Z,3.10
2022-12-04T18:39:32.241Z,3.10
2022-12-04T18:42:00.326Z,3.10
2022-12-04T18:44:28.296Z,3.10
2022-12-04T18:46:56.606Z,3.20
2022-12-04T18:49:24.654Z,3.20
2022-12-04T18:51:52.723Z,3.20
2022-12-04T18:54:23.397Z,3.20
2022-12-04T18:56:57.551Z,3.20
2022-12-04T18:59:29.169Z,3.30
2022-12-04T19:01:57.647Z,3.30
2022-12-04T19:04:26.587Z,3.40
2022-12-04T19:06:56.234Z,3.30
2022-12-04T19:09:54.308Z,3.40
2022-12-04T19:12:17.021Z,3.40
2022-12-04T19:14:45.175Z,3.40
2022-12-04T19:17:13.513Z,3.40
2022-12-04T19:19:41.620Z,3.60
2022-12-04T19:22:09.698Z,3.40
2022-12-04T19:24:37.866Z,3.50
2022-12-04T19:27:11.132Z,3.50
2022-12-04T19:29:42.528Z,3.50
2022-12-04T19:32:11.780Z,3.50
2022-12-04T19:34:39.946Z,3.50
2022-12-04T19:37:08.366Z,3.50
2022-12-04T19:39:36.672Z,3.50
2022-12-04T19:42:05.263Z,3.50
2022-12-04T19:44:49.756Z,3.50
2022-12-04T19:47:19.575Z,3.50
2022-12-04T19:49:47.744Z,3.40
2022-12-04T19:52:16.478Z,3.50
2022-12-04T19:54:44.607Z,3.50
2022-12-04T19:57:12.905Z,3.50
2022-12-04T19:59:46.000Z,3.50
2022-12-04T20:02:14.951Z,3.50
2022-12-04T20:04:44.694Z,3.50
2022-12-04T20:07:12.969Z,3.60
2022-12-04T20:09:41.071Z,3.60
2022-12-04T20:12:09.246Z,3.60
2022-12-04T20:14:37.574Z,3.60
2022-12-04T20:17:05.701Z,3.60
2022-12-04T20:19:33.863Z,3.60
2022-12-04T20:22:03.319Z,3.60
2022-12-04T20:24:31.322Z,3.60
2022-12-04T20:26:59.459Z,3.70
2022-12-04T20:29:27.829Z,3.70
2022-12-04T20:31:55.707Z,3.70
2022-12-04T20:34:23.768Z,3.90
2022-12-04T20:36:51.790Z,3.70
2022-12-04T20:39:21.810Z,3.70
2022-12-04T20:41:49.929Z,3.60
2022-12-04T20:44:19.895Z,3.60
2022-12-04T20:46:48.816Z,3.60
2022-12-04T20:49:22.117Z,3.60
2022-12-04T20:51:51.638Z,3.50
2022-12-04T20:54:23.250Z,3.50
2022-12-04T20:56:53.351Z,3.60
2022-12-04T20:59:23.097Z,3.60
2022-12-04T21:01:55.619Z,3.60
2022-12-04T21:04:24.189Z,3.60
2022-12-04T21:06:52.655Z,3.60
2022-12-04T21:09:24.580Z,3.50
2022-12-04T21:11:54.211Z,3.50
2022-12-04T21:14:43.359Z,3.50
2022-12-04T21:17:16.889Z,3.50
2022-12-04T21:19:45.013Z,3.50
2022-12-04T21:22:13.529Z,3.50
2022-12-04T21:24:43.096Z,3.50
2022-12-04T21:27:17.194Z,3.50
2022-12-04T21:29:48.649Z,3.50
2022-12-04T21:32:20.036Z,3.50
2022-12-04T21:34:48.196Z,3.50
2022-12-04T21:37:16.430Z,3.50
2022-12-04T21:39:46.186Z,3.50
2022-12-04T21:42:32.728Z,3.50
2022-12-04T21:45:01.960Z,3.50
2022-12-04T21:47:30.760Z,3.50
2022-12-04T21:49:59.097Z,3.50
2022-12-04T21:52:27.560Z,3.60
2022-12-04T21:54:57.481Z,3.50
2022-12-04T21:57:25.964Z,3.50
2022-12-04T21:59:54.231Z,3.50
2022-12-04T22:02:22.407Z,3.40
2022-12-04T22:04:50.604Z,3.50
2022-12-04T22:07:18.878Z,3.50
2022-12-04T22:09:46.967Z,3.60
2022-12-04T22:12:49.065Z,3.60
2022-12-04T22:15:08.256Z,3.60
2022-12-04T22:17:36.421Z,3.60
2022-12-04T22:20:04.808Z,3.60
2022-12-04T22:22:33.061Z,3.60
2022-12-04T22:25:01.819Z,3.70
2022-12-04T22:27:31.451Z,3.60
2022-12-04T22:29:59.604Z,3.50
2022-12-04T22:32:27.828Z,3.60
2022-12-04T22:34:56.413Z,3.50
2022-12-04T22:37:25.034Z,3.50
2022-12-04T22:39:53.104Z,3.50
2022-12-04T22:42:21.397Z,3.60
2022-12-04T22:44:51.071Z,3.60
2022-12-04T22:47:19.438Z,3.70
2022-12-04T22:49:47.361Z,3.60
2022-12-04T22:52:15.712Z,3.60
2022-12-04T22:54:43.703Z,3.60
2022-12-04T22:57:11.875Z,3.60
2022-12-04T22:59:40.161Z,3.60
2022-12-04T23:02:09.679Z,3.70
2022-12-04T23:04:37.766Z,3.60
2022-12-04T23:07:07.025Z,3.60
2022-12-04T23:09:35.583Z,3.60
2022-12-04T23:12:04.069Z,3.60
2022-12-04T23:14:33.666Z,3.70
2022-12-04T23:17:01.765Z,3.70
2022-12-04T23:19:31.704Z,3.70
2022-12-04T23:21:59.868Z,3.70
2022-12-04T23:24:27.917Z,3.80
2022-12-04T23:26:56.650Z,3.90
2022-12-04T23:32:12.914Z,3.80
2022-12-04T23:34:42.494Z,3.90
2022-12-04T23:37:11.098Z,3.80
2022-12-04T23:39:38.962Z,3.80
2022-12-04T23:42:07.091Z,3.80
2022-12-04T23:44:35.356Z,3.90
2022-12-04T23:47:03.336Z,3.90
2022-12-04T23:49:31.576Z,3.90
2022-12-04T23:52:00.978Z,3.90
2022-12-04T23:54:34.796Z,4.00
2022-12-04T23:57:02.926Z,4.00
2022-12-04T23:59:30.819Z,4.00
